Time;durP1;ratioP1;P1;durP2;ratioP2;P2;SDS_P1;SDS_P2;PMS_P1;PMS_P2;Temp;Humidity;BMP_temperature;BMP_pressure;BME280_temperature;BME280_humidity;BME280_pressure;Samples;Min_cycle;Max_cycle;Signal;HPM_P1;HPM_P2
2023/01/04 00:01:13;;;;;;;51.20;28.08;;;;;;;6.65;59.94;101546.22;4939967;28;97301;-77
2023/01/04 00:03:38;;;;;;;53.00;27.08;;;;;;;6.60;60.05;101542.72;4919968;28;96918;-78
2023/01/04 00:06:06;;;;;;;49.00;28.13;;;;;;;6.58;60.29;101537.53;4915392;28;101585;-78
2023/01/04 00:08:32;;;;;;;49.20;28.55;;;;;;;6.56;60.04;101528.81;4953956;28;101113;-78
2023/01/04 00:11:18;;;;;;;50.08;28.75;;;;;;;6.53;60.13;101520.97;4937473;28;97196;-77
2023/01/04 00:13:44;;;;;;;44.00;26.50;;;;;;;6.47;60.31;101502.72;4913745;28;96766;-77
2023/01/04 00:16:13;;;;;;;52.25;27.48;;;;;;;6.50;59.79;101500.09;4930727;28;101633;-77
2023/01/04 00:18:39;;;;;;;46.38;26.85;;;;;;;6.53;60.31;101506.19;4935288;28;101706;-77
2023/01/04 00:21:09;;;;;;;47.27;25.93;;;;;;;6.55;60.09;101508.81;4889909;28;98011;-79
2023/01/04 00:23:35;;;;;;;48.00;25.08;;;;;;;6.51;60.43;101500.09;4957794;28;97177;-80
2023/01/04 00:26:01;;;;;;;48.63;27.35;;;;;;;6.53;60.37;101510.53;4928715;28;101923;-77
2023/01/04 00:28:26;;;;;;;45.10;26.50;;;;;;;6.49;60.52;101509.69;4937191;28;101514;-77
2023/01/04 00:30:52;;;;;;;50.67;27.10;;;;;;;6.46;60.17;101501.84;4927320;28;97425;-77
2023/01/04 00:33:17;;;;;;;46.38;27.25;;;;;;;6.46;60.87;101509.66;4899756;28;97013;-77
2023/01/04 00:35:43;;;;;;;48.40;28.97;;;;;;;6.19;60.38;101463.53;4931738;28;98041;-77
2023/01/04 00:38:09;;;;;;;49.17;29.07;;;;;;;6.48;60.51;101522.69;4942142;28;97915;-77
2023/01/04 00:40:34;;;;;;;52.17;28.00;;;;;;;6.52;59.84;101507.06;4925588;28;97501;-77
2023/01/04 00:43:00;;;;;;;54.25;28.40;;;;;;;6.53;59.61;101505.31;4934976;28;97997;-77
2023/01/04 00:45:26;;;;;;;63.43;31.40;;;;;;;6.31;60.20;101514.84;4942882;28;101338;-77
2023/01/04 00:47:51;;;;;;;61.63;30.53;;;;;;;6.09;60.57;101491.31;4912766;28;97339;-78
2023/01/04 00:50:17;;;;;;;59.40;29.33;;;;;;;6.09;60.53;101488.72;4943158;28;96823;-77
2023/01/04 00:52:42;;;;;;;62.38;29.90;;;;;;;6.24;60.71;101508.75;4916423;28;97974;-78
2023/01/04 00:55:08;;;;;;;61.92;30.52;;;;;;;6.10;60.49;101487.84;4936639;28;97685;-77
2023/01/04 00:57:34;;;;;;;58.00;30.45;;;;;;;6.28;60.31;101518.34;4942556;28;97909;-77
2023/01/04 00:59:59;;;;;;;61.63;30.00;;;;;;;6.25;60.44;101512.22;4900383;28;97002;-78
2023/01/04 01:02:25;;;;;;;53.53;28.50;;;;;;;6.25;60.29;101520.03;4933027;28;97015;-78
2023/01/04 01:04:50;;;;;;;54.13;29.47;;;;;;;6.25;60.06;101522.66;4908647;28;101846;-77
2023/01/04 01:07:16;;;;;;;56.00;29.27;;;;;;;6.23;60.29;101524.41;4901783;28;97632;-77
2023/01/04 01:09:41;;;;;;;50.13;27.93;;;;;;;6.20;60.04;101521.78;4908509;28;97196;-78
2023/01/04 01:12:07;;;;;;;52.73;28.20;;;;;;;6.15;60.18;101515.69;4930969;28;97226;-77
2023/01/04 01:14:33;;;;;;;48.10;25.67;;;;;;;6.17;60.04;101512.22;4929688;28;98436;-78
2023/01/04 01:16:58;;;;;;;52.90;27.80;;;;;;;6.18;60.25;101506.13;4941962;28;97664;-77
2023/01/04 01:19:27;;;;;;;49.53;27.02;;;;;;;6.29;59.79;101516.59;4909132;28;97015;-77
2023/01/04 01:21:52;;;;;;;47.85;24.55;;;;;;;6.13;59.68;101494.78;4921045;28;96925;-77
2023/01/04 01:24:19;;;;;;;49.08;25.77;;;;;;;6.16;59.80;101491.34;4922133;28;101192;-77
2023/01/04 01:26:45;;;;;;;44.13;23.77;;;;;;;5.98;60.29;101510.41;4943983;28;101590;-77
2023/01/04 01:29:10;;;;;;;44.97;23.90;;;;;;;5.97;60.43;101506.94;4928348;28;98345;-77
2023/01/04 01:31:36;;;;;;;46.90;23.73;;;;;;;5.73;60.66;101492.03;4945587;28;97056;-77
2023/01/04 01:34:02;;;;;;;45.37;24.90;;;;;;;5.76;61.20;101491.16;4944792;28;101094;-77
2023/01/04 01:36:27;;;;;;;54.40;25.53;;;;;;;5.89;60.59;101506.84;4922820;28;101255;-77
2023/01/04 01:38:53;;;;;;;44.77;23.00;;;;;;;5.97;60.45;101500.84;4959985;28;96982;-77
2023/01/04 01:41:25;;;;;;;48.07;25.30;;;;;;;5.97;60.36;101488.69;4911459;28;96905;-80
2023/01/04 01:43:54;;;;;;;53.07;29.77;;;;;;;5.97;60.62;101486.06;4921662;28;101428;-77
2023/01/04 01:46:47;;;;;;;51.47;27.33;;;;;;;5.94;60.05;101475.63;4928091;28;97952;-77
2023/01/04 01:49:24;;;;;;;42.13;23.40;;;;;;;5.98;60.27;101487.81;4910391;28;96847;-77
2023/01/04 01:51:50;;;;;;;43.47;22.70;;;;;;;5.77;60.62;101467.72;4935120;28;98049;-77
2023/01/04 01:54:20;;;;;;;44.53;22.77;;;;;;;5.61;60.58;101471.13;4934098;28;104404;-77
2023/01/04 01:56:47;;;;;;;42.13;22.93;;;;;;;5.52;60.74;101440.69;4912069;28;101692;-77
2023/01/04 01:59:13;;;;;;;42.60;21.00;;;;;;;5.74;61.06;101457.28;4946468;28;97338;-77
2023/01/04 02:01:39;;;;;;;42.33;20.17;;;;;;;5.88;60.16;101457.34;4918879;28;97494;-77
2023/01/04 02:04:05;;;;;;;43.67;21.70;;;;;;;5.74;60.45;101446.88;4926077;28;101498;-77
2023/01/04 02:06:41;;;;;;;40.30;21.97;;;;;;;5.73;60.14;101445.13;4908581;28;100969;-77
2023/01/04 02:09:07;;;;;;;41.67;19.87;;;;;;;5.63;60.34;101433.78;4876897;28;96965;-77
2023/01/04 02:11:33;;;;;;;45.30;22.13;;;;;;;5.54;60.44;101425.06;4928214;28;97435;-77
2023/01/04 02:16:49;;;;;;;36.13;19.67;;;;;;;5.70;60.57;101458.13;4936288;28;98413;-81
2023/01/04 02:19:33;;;;;;;32.95;18.73;;;;;;;5.72;60.65;101450.31;4924582;28;97786;-77
2023/01/04 02:22:21;;;;;;;42.53;23.20;;;;;;;5.72;60.30;101452.94;4924823;28;97418;-77
2023/01/04 02:25:02;;;;;;;42.03;22.37;;;;;;;5.72;60.45;101448.59;4919399;28;97956;-78
2023/01/04 02:27:45;;;;;;;36.07;20.53;;;;;;;5.75;60.53;101447.72;4929774;28;101732;-77
2023/01/04 02:30:20;;;;;;;33.70;17.43;;;;;;;5.76;60.19;101436.44;4912125;28;96773;-77
2023/01/04 02:32:58;;;;;;;41.93;20.77;;;;;;;5.64;60.57;101432.03;4940967;28;97298;-79
2023/01/04 02:35:29;;;;;;;34.17;18.33;;;;;;;5.55;60.62;101425.06;4916537;28;101578;-77
2023/01/04 02:38:00;;;;;;;39.35;18.90;;;;;;;5.69;60.10;101435.53;4931325;28;98419;-77
2023/01/04 02:40:32;;;;;;;32.57;16.47;;;;;;;5.58;60.72;101430.28;4940614;28;97330;-78
2023/01/04 02:45:58;;;;;;;38.73;20.50;;;;;;;5.50;60.71;101399.88;4935358;28;101068;-77
2023/01/04 02:51:36;;;;;;;33.30;17.80;;;;;;;5.50;60.71;101410.28;4940592;28;96773;-77
2023/01/04 02:54:10;;;;;;;39.63;20.67;;;;;;;5.47;60.42;101408.56;4943884;28;97148;-78
2023/01/04 02:56:41;;;;;;;37.23;19.90;;;;;;;5.38;60.84;101411.09;4927558;28;101339;-76
2023/01/04 02:59:17;;;;;;;31.90;16.85;;;;;;;5.41;60.94;101417.22;4960284;28;98514;-78
2023/01/04 03:08:39;;;;;;;40.30;21.13;;;;;;;5.32;60.32;101391.09;4926550;28;101348;-77
2023/01/04 03:14:03;;;;;;;38.80;21.23;;;;;;;5.15;60.22;101371.97;4934323;28;98087;-80
2023/01/04 03:16:29;;;;;;;40.50;21.30;;;;;;;5.26;60.47;101374.59;4901178;28;97278;-79
2023/01/04 03:18:56;;;;;;;37.23;18.77;;;;;;;5.06;60.46;101344.16;4911267;28;101351;-79
2023/01/04 03:21:24;;;;;;;31.30;16.03;;;;;;;5.27;60.38;101376.34;4923910;28;101550;-80
2023/01/04 03:36:00;;;;;;;21.47;11.33;;;;;;;4.97;61.80;101333.69;4955724;28;96819;-76
2023/01/04 03:50:38;;;;;;;19.17;11.23;;;;;;;4.86;62.54;101349.25;4938940;28;97088;-77
2023/01/04 03:53:05;;;;;;;18.73;10.63;;;;;;;4.76;62.55;101308.41;4929997;28;101010;-77
2023/01/04 03:55:33;;;;;;;21.23;9.50;;;;;;;4.92;62.82;101335.41;4939063;28;98067;-77
2023/01/04 03:57:59;;;;;;;16.33;9.33;;;;;;;4.68;63.07;101316.19;4929639;28;96778;-77
2023/01/04 04:00:24;;;;;;;19.57;9.97;;;;;;;4.72;63.43;101337.88;4939777;28;96804;-77
2023/01/04 04:02:50;;;;;;;18.20;9.97;;;;;;;4.69;63.69;101323.13;4913960;28;101470;-77
2023/01/04 04:10:51;;;;;;;15.77;8.47;;;;;;;4.39;64.47;101287.38;4943556;28;97412;-77
2023/01/04 04:13:16;;;;;;;17.17;9.47;;;;;;;4.30;65.23;101295.13;4929860;28;101372;-77
2023/01/04 04:15:42;;;;;;;16.50;8.00;;;;;;;4.16;65.91;101300.25;4928903;28;101939;-77
2023/01/04 04:18:07;;;;;;;14.17;8.13;;;;;;;4.01;66.27;101284.50;4946068;28;97378;-77
2023/01/04 04:20:33;;;;;;;16.17;9.40;;;;;;;4.12;66.64;101303.66;4917718;28;97264;-77
2023/01/04 04:22:59;;;;;;;13.90;8.77;;;;;;;4.06;67.08;101294.09;4913538;28;97908;-77
2023/01/04 04:25:24;;;;;;;13.57;8.00;;;;;;;4.21;66.50;101301.13;4929761;28;101088;-77
2023/01/04 04:27:50;;;;;;;14.83;8.80;;;;;;;4.25;66.32;101297.72;4945763;28;97045;-78
2023/01/04 04:30:15;;;;;;;13.40;7.77;;;;;;;4.32;66.69;101296.00;4961966;28;97261;-77
2023/01/04 04:32:41;;;;;;;16.67;8.50;;;;;;;4.43;65.62;101281.38;4945941;28;98593;-76
2023/01/04 04:35:07;;;;;;;14.23;7.67;;;;;;;4.42;66.06;101294.34;4896555;28;101447;-77
2023/01/04 04:37:33;;;;;;;14.67;8.90;;;;;;;4.45;66.19;101289.16;4929798;28;96811;-80
2023/01/04 04:40:00;;;;;;;13.83;8.33;;;;;;;4.28;66.25;101284.72;4913242;28;96943;-79
2023/01/04 04:42:25;;;;;;;13.80;8.03;;;;;;;4.21;66.71;101292.47;4911255;28;97524;-79
2023/01/04 04:44:51;;;;;;;17.83;8.00;;;;;;;4.26;66.82;101280.38;4939267;28;98505;-79
2023/01/04 04:47:16;;;;;;;15.77;9.20;;;;;;;4.44;66.31;101290.88;4929714;28;96804;-79
2023/01/04 04:49:42;;;;;;;15.83;9.20;;;;;;;4.25;66.59;101287.31;4945546;28;96920;-79
2023/01/04 04:52:08;;;;;;;13.93;9.27;;;;;;;4.07;67.51;101292.34;4945912;28;101720;-78
2023/01/04 04:54:33;;;;;;;16.37;9.23;;;;;;;3.87;67.51;101271.44;4913672;28;97411;-78
2023/01/04 04:56:59;;;;;;;13.40;9.40;;;;;;;3.89;67.84;101268.81;4945555;28;98999;-78
2023/01/04 04:59:24;;;;;;;18.80;9.93;;;;;;;4.12;67.48;101276.81;4913492;28;97090;-78
2023/01/04 05:01:50;;;;;;;15.67;9.43;;;;;;;3.98;67.79;101272.34;4919879;28;101049;-77
2023/01/04 05:04:18;;;;;;;16.47;10.70;;;;;;;3.76;68.49;101252.28;4961071;28;97785;-78
2023/01/04 05:06:48;;;;;;;19.50;10.17;;;;;;;3.70;69.18;101265.22;4961690;28;96871;-78
2023/01/04 05:09:14;;;;;;;17.70;10.60;;;;;;;3.65;69.48;101256.50;4910306;28;96753;-78
2023/01/04 05:14:25;;;;;;;16.47;10.83;;;;;;;3.78;69.33;101251.44;4957186;28;97711;-78
2023/01/04 05:16:51;;;;;;;18.10;10.20;;;;;;;3.85;69.13;101253.22;4910723;28;97298;-78
2023/01/04 05:19:16;;;;;;;21.03;11.00;;;;;;;3.96;68.22;101242.91;4945225;28;96902;-78
2023/01/04 05:21:42;;;;;;;19.60;12.23;;;;;;;4.04;68.28;101248.16;4940198;28;101047;-78
2023/01/04 05:24:10;;;;;;;18.00;11.77;;;;;;;3.93;68.82;101248.09;4919935;28;101560;-77
2023/01/04 05:26:36;;;;;;;22.07;12.53;;;;;;;3.59;69.32;101215.78;4961919;28;96716;-79
2023/01/04 05:29:01;;;;;;;19.40;12.03;;;;;;;3.72;69.12;101225.38;4929052;28;96924;-77
2023/01/04 05:31:27;;;;;;;20.17;12.83;;;;;;;3.55;69.44;101196.69;4945435;28;98147;-77
2023/01/04 05:33:52;;;;;;;22.50;13.00;;;;;;;3.61;69.75;101221.84;4946175;28;101184;-79
2023/01/04 05:36:18;;;;;;;22.43;12.53;;;;;;;3.54;69.74;101212.25;4944519;28;96858;-77
2023/01/04 05:38:43;;;;;;;19.40;13.07;;;;;;;3.73;69.67;101234.94;4929585;28;97790;-78
2023/01/04 05:43:53;;;;;;;17.67;12.47;;;;;;;3.72;69.67;101225.38;4942828;28;100486;-78
2023/01/04 05:46:19;;;;;;;18.23;12.03;;;;;;;3.64;69.88;101219.28;4927696;28;97571;-78
2023/01/04 05:48:44;;;;;;;19.37;12.70;;;;;;;3.60;69.88;101197.59;4944680;28;97002;-77
2023/01/04 05:51:10;;;;;;;16.63;11.97;;;;;;;3.68;69.91;101202.00;4928021;28;101157;-77
2023/01/04 05:53:35;;;;;;;18.30;11.77;;;;;;;3.73;70.02;101206.38;4928395;28;101656;-77
2023/01/04 05:56:01;;;;;;;19.07;12.60;;;;;;;3.51;70.23;101194.06;4928307;28;96700;-77
2023/01/04 05:58:26;;;;;;;20.10;12.53;;;;;;;3.62;69.99;101205.41;4944425;28;96931;-77
2023/01/04 06:00:53;;;;;;;17.10;11.67;;;;;;;3.75;69.96;101207.25;4928033;28;100486;-78
2023/01/04 06:03:18;;;;;;;17.90;12.10;;;;;;;3.77;69.24;101195.13;4928544;28;100941;-78
2023/01/04 06:05:48;;;;;;;19.00;13.57;;;;;;;3.65;69.37;101169.06;4928145;28;97063;-78
2023/01/04 06:08:14;;;;;;;19.57;12.77;;;;;;;3.90;69.05;101209.09;4944310;28;97094;-78
2023/01/04 06:10:39;;;;;;;19.37;13.43;;;;;;;3.98;68.81;101204.81;4927041;28;101551;-78
2023/01/04 06:13:05;;;;;;;20.37;12.47;;;;;;;3.97;68.71;101217.81;4927658;28;101503;-80
2023/01/04 06:15:30;;;;;;;16.53;11.83;;;;;;;4.04;68.51;101219.56;4943802;28;97165;-77
2023/01/04 06:17:56;;;;;;;17.87;11.63;;;;;;;4.05;68.68;101222.19;4961367;28;96996;-77
2023/01/04 06:20:22;;;;;;;18.37;12.20;;;;;;;3.98;68.53;101203.94;4927652;28;101096;-77
2023/01/04 06:22:47;;;;;;;18.37;12.00;;;;;;;3.72;69.28;101193.34;4922555;28;101518;-78
2023/01/04 06:25:13;;;;;;;20.03;13.63;;;;;;;3.63;70.08;101186.38;4938451;28;97097;-78
2023/01/04 06:27:38;;;;;;;17.50;12.07;;;;;;;3.76;69.49;101192.53;4915723;28;97221;-78
2023/01/04 06:30:04;;;;;;;21.77;11.67;;;;;;;3.81;69.45;101183.03;4937673;28;101442;-78
2023/01/04 06:32:30;;;;;;;15.37;10.50;;;;;;;3.88;69.12;101166.66;4940601;28;98012;-78
2023/01/04 06:34:55;;;;;;;18.63;11.97;;;;;;;3.74;69.62;101165.69;4922095;28;98118;-78
2023/01/04 06:37:21;;;;;;;17.30;11.37;;;;;;;3.72;69.77;101147.47;4940542;28;97353;-77
2023/01/04 06:39:47;;;;;;;16.10;11.20;;;;;;;3.76;70.02;101151.84;4923944;28;101450;-77
2023/01/04 06:44:56;;;;;;;16.70;11.87;;;;;;;3.75;69.69;101141.44;4953894;28;97359;-77
2023/01/04 06:47:22;;;;;;;15.70;10.60;;;;;;;3.84;69.42;101137.19;4958506;28;97347;-79
2023/01/04 06:49:48;;;;;;;16.57;10.20;;;;;;;3.75;69.23;101126.75;4921078;28;100450;-77
2023/01/04 06:52:13;;;;;;;14.87;9.80;;;;;;;3.86;69.88;101134.59;4923876;28;101315;-79
2023/01/04 06:54:39;;;;;;;16.17;10.57;;;;;;;3.85;69.43;101132.88;4910715;28;97136;-80
2023/01/04 06:57:04;;;;;;;16.97;10.90;;;;;;;3.84;69.74;101129.41;4935042;28;97180;-78
2023/01/04 06:59:30;;;;;;;16.37;10.60;;;;;;;3.85;69.91;101127.66;4938437;28;101170;-79
2023/01/04 07:01:55;;;;;;;15.20;10.33;;;;;;;3.83;69.96;101126.78;4920204;28;101570;-79
2023/01/04 07:04:21;;;;;;;16.63;10.70;;;;;;;3.86;69.99;101138.06;4941732;28;97365;-78
2023/01/04 07:06:46;;;;;;;17.17;11.00;;;;;;;3.80;70.46;101126.75;4955688;28;97090;-79
2023/01/04 07:09:12;;;;;;;17.77;11.63;;;;;;;3.73;70.44;101117.22;4918292;28;100996;-79
2023/01/04 07:11:37;;;;;;;16.57;11.83;;;;;;;3.82;70.67;101110.34;4927242;28;101082;-79
2023/01/04 07:14:03;;;;;;;14.70;11.37;;;;;;;3.78;70.33;101102.50;4915508;28;97113;-78
2023/01/04 07:16:28;;;;;;;17.87;10.33;;;;;;;3.89;70.52;101105.16;4947532;28;97880;-78
2023/01/04 07:18:54;;;;;;;20.30;11.00;;;;;;;3.88;70.65;101104.31;4926875;28;101604;-79
2023/01/04 07:21:19;;;;;;;15.93;10.33;;;;;;;3.95;70.46;101106.06;4936534;28;97422;-78
2023/01/04 07:23:45;;;;;;;16.30;10.67;;;;;;;3.90;70.99;101105.19;4928571;28;97956;-80
2023/01/04 07:26:10;;;;;;;22.03;9.70;;;;;;;3.98;70.71;101108.69;4929325;28;97560;-78
2023/01/04 07:31:20;;;;;;;14.77;9.90;;;;;;;4.02;70.36;101083.59;4940037;28;101387;-78
2023/01/04 07:33:48;;;;;;;12.97;8.40;;;;;;;4.13;70.30;101101.81;4927635;28;97028;-78
2023/01/04 07:36:13;;;;;;;14.23;9.50;;;;;;;3.93;70.24;101065.38;4953936;28;96792;-79
2023/01/04 07:38:39;;;;;;;14.33;9.43;;;;;;;4.16;70.13;101096.63;4925751;28;101503;-79
2023/01/04 07:41:05;;;;;;;16.47;9.43;;;;;;;4.12;70.58;101092.31;4927469;28;101138;-78
2023/01/04 07:43:30;;;;;;;13.60;9.07;;;;;;;4.06;70.91;101078.41;4922250;28;97090;-79
2023/01/04 07:45:56;;;;;;;13.73;8.23;;;;;;;4.02;70.70;101066.28;4942857;28;97063;-80
2023/01/04 07:48:21;;;;;;;13.83;9.47;;;;;;;4.13;70.97;101086.22;4912110;28;101493;-80
2023/01/04 07:50:48;;;;;;;16.43;9.23;;;;;;;4.20;70.91;101093.22;4922250;28;101973;-78
2023/01/04 07:53:14;;;;;;;12.60;7.90;;;;;;;4.29;70.80;101095.84;4912654;28;96774;-79
2023/01/04 07:55:39;;;;;;;12.23;7.93;;;;;;;4.28;70.15;101074.19;4943540;28;97015;-78
2023/01/04 07:58:05;;;;;;;14.97;9.20;;;;;;;4.32;70.14;101055.13;4913588;28;102008;-80
2023/01/04 08:00:30;;;;;;;11.80;8.60;;;;;;;4.53;69.79;101074.25;4940079;28;97734;-78
2023/01/04 08:02:56;;;;;;;15.43;8.33;;;;;;;4.64;69.98;101069.09;4911373;28;96805;-78
2023/01/04 08:05:23;;;;;;;15.40;8.80;;;;;;;4.59;69.40;101053.47;4926443;28;97160;-79
2023/01/04 08:07:49;;;;;;;14.80;8.97;;;;;;;4.79;69.12;101066.50;4943108;28;97811;-78
2023/01/04 08:10:15;;;;;;;15.53;8.27;;;;;;;5.01;68.93;101064.81;4926245;28;97764;-78
2023/01/04 08:12:40;;;;;;;14.43;7.30;;;;;;;5.21;68.20;101054.41;4930597;28;97026;-77
2023/01/04 08:15:06;;;;;;;14.27;7.63;;;;;;;5.34;67.86;101045.69;4898080;28;97234;-77
2023/01/04 08:17:32;;;;;;;14.67;8.47;;;;;;;5.62;67.56;101066.50;4927038;28;97547;-77
2023/01/04 08:19:57;;;;;;;12.23;7.83;;;;;;;5.75;67.58;101036.94;4926847;28;97923;-78
2023/01/04 08:22:23;;;;;;;14.33;8.10;;;;;;;6.16;66.66;101035.09;4932144;28;96755;-78
2023/01/04 08:24:48;;;;;;;12.77;7.33;;;;;;;6.46;65.30;101047.13;4924723;28;96843;-77
2023/01/04 08:27:14;;;;;;;13.47;8.67;;;;;;;6.58;64.28;101028.78;4961954;28;97494;-79
2023/01/04 08:29:39;;;;;;;12.93;7.50;;;;;;;6.55;64.87;101019.22;4929794;28;101428;-78
2023/01/04 08:32:05;;;;;;;12.87;8.00;;;;;;;6.65;64.27;101024.38;4930171;28;96753;-77
2023/01/04 08:34:30;;;;;;;13.67;7.23;;;;;;;6.69;64.18;101031.31;4926301;28;97504;-77
2023/01/04 08:36:57;;;;;;;12.10;7.97;;;;;;;6.63;64.46;101019.16;4938960;28;97285;-78
2023/01/04 08:39:23;;;;;;;13.77;6.97;;;;;;;6.69;64.55;101006.09;4920875;28;102159;-78
2023/01/04 08:41:52;;;;;;;10.73;6.37;;;;;;;6.74;64.38;101003.44;4927332;28;97335;-78
2023/01/04 08:44:20;;;;;;;12.50;6.70;;;;;;;6.75;64.56;101007.81;4887322;28;96841;-77
2023/01/04 08:46:46;;;;;;;10.13;7.03;;;;;;;6.52;64.48;100984.47;4923746;28;101304;-77
2023/01/04 08:49:12;;;;;;;11.30;6.53;;;;;;;6.53;65.05;100987.06;4899072;28;101372;-77
2023/01/04 08:51:37;;;;;;;11.33;6.27;;;;;;;6.61;64.79;100981.81;4936210;28;97945;-78
2023/01/04 08:54:03;;;;;;;10.37;6.63;;;;;;;6.59;64.93;100965.28;4914379;28;97136;-78
2023/01/04 08:56:28;;;;;;;9.97;6.13;;;;;;;6.75;64.73;100974.75;4925773;28;101800;-78
2023/01/04 08:58:54;;;;;;;11.10;6.10;;;;;;;6.78;64.36;100968.63;4927789;28;98320;-77
2023/01/04 09:01:19;;;;;;;9.93;5.97;;;;;;;6.74;64.58;100962.56;4934539;28;99693;-78
2023/01/04 09:03:45;;;;;;;11.03;5.93;;;;;;;6.76;64.97;100973.00;4906946;28;97560;-77
2023/01/04 09:06:13;;;;;;;9.03;5.90;;;;;;;6.75;65.17;100968.66;4926833;28;97514;-77
2023/01/04 09:08:40;;;;;;;9.10;5.30;;;;;;;6.75;65.16;100964.31;4934821;28;101433;-81
2023/01/04 09:11:08;;;;;;;10.67;5.47;;;;;;;6.69;65.03;100960.84;4893866;28;97113;-78
2023/01/04 09:13:35;;;;;;;10.20;5.60;;;;;;;6.75;65.15;100953.00;4940414;28;97604;-77
2023/01/04 09:16:12;;;;;;;8.50;5.37;;;;;;;6.73;65.15;100941.72;4895399;28;101504;-77
2023/01/04 09:18:38;;;;;;;9.63;5.23;;;;;;;6.70;65.13;100953.03;4927567;28;101048;-78
2023/01/04 09:21:06;;;;;;;7.90;4.80;;;;;;;6.67;65.31;100936.53;4900924;28;96891;-78
2023/01/04 09:23:32;;;;;;;7.03;4.87;;;;;;;6.57;65.33;100918.38;4908260;28;97362;-79
2023/01/04 09:25:59;;;;;;;8.10;5.03;;;;;;;6.67;65.50;100916.53;4942698;28;97503;-77
2023/01/04 09:28:25;;;;;;;9.73;5.03;;;;;;;6.74;65.89;100904.28;4926879;28;100829;-77
2023/01/04 09:30:51;;;;;;;9.23;4.87;;;;;;;6.62;65.59;100883.53;4941110;28;97381;-77
2023/01/04 09:33:16;;;;;;;12.97;4.67;;;;;;;6.66;66.14;100890.44;4923518;28;97513;-80
2023/01/04 09:35:42;;;;;;;7.67;4.40;;;;;;;6.66;65.91;100898.25;4939451;28;101192;-77
2023/01/04 09:38:08;;;;;;;8.80;4.70;;;;;;;6.61;66.04;100887.03;4919505;28;100653;-78
2023/01/04 09:40:53;;;;;;;11.93;4.60;;;;;;;6.72;65.75;100895.59;4937951;28;97304;-77
2023/01/04 09:43:21;;;;;;;11.50;4.47;;;;;;;6.63;65.63;100862.63;4956380;28;96827;-77
2023/01/04 09:45:49;;;;;;;9.60;4.07;;;;;;;6.72;66.13;100864.28;4940334;28;101310;-78
2023/01/04 09:48:21;;;;;;;6.87;3.80;;;;;;;6.85;65.57;100857.22;4906570;28;101356;-77
2023/01/04 09:50:52;;;;;;;6.67;3.60;;;;;;;6.86;66.00;100854.59;4913275;28;97248;-77
2023/01/04 09:53:35;;;;;;;7.80;4.43;;;;;;;6.90;65.88;100848.47;4919610;28;97221;-81
2023/01/04 09:56:07;;;;;;;8.37;4.27;;;;;;;6.90;65.73;100839.78;4907728;28;98019;-79
2023/01/04 09:58:38;;;;;;;8.47;4.40;;;;;;;6.94;65.87;100838.84;4913897;28;101659;-78
2023/01/04 10:01:06;;;;;;;9.07;4.60;;;;;;;7.09;65.28;100836.06;4917310;28;97194;-79
2023/01/04 10:03:35;;;;;;;8.25;4.43;;;;;;;7.09;65.08;100819.53;4926136;28;97821;-85
2023/01/04 10:06:01;;;;;;;8.60;4.03;;;;;;;7.19;65.11;100839.44;4933359;28;101222;-86
2023/01/04 10:08:27;;;;;;;6.43;4.00;;;;;;;7.28;65.04;100823.66;4917903;28;101574;-85
2023/01/04 10:11:21;;;;;;;5.93;3.63;;;;;;;7.24;64.37;100785.41;4904609;28;97225;-84
2023/01/04 10:13:46;;;;;;;6.60;3.30;;;;;;;7.37;64.68;100805.25;4965712;28;96768;-86
2023/01/04 10:16:27;;;;;;;12.85;4.60;;;;;;;7.35;64.63;100783.50;4933564;28;97606;-84
2023/01/04 10:19:04;;;;;;;12.85;4.32;;;;;;;7.43;64.67;100780.81;4938862;28;101950;-84
2023/01/04 10:21:41;;;;;;;5.18;3.47;;;;;;;7.46;64.37;100768.56;4942705;28;98033;-86
2023/01/04 10:24:45;;;;;;;7.17;3.60;;;;;;;7.56;64.36;100760.59;4941248;28;97276;-85
2023/01/04 10:27:32;;;;;;;9.10;3.42;;;;;;;7.76;64.10;100757.69;4952707;28;100679;-86
2023/01/04 10:30:17;;;;;;;6.73;3.30;;;;;;;7.87;63.43;100738.31;4927667;28;101787;-83
2023/01/04 10:32:44;;;;;;;5.40;3.00;;;;;;;7.92;63.95;100714.72;4933619;28;96792;-83
2023/01/04 10:35:24;;;;;;;7.82;3.13;;;;;;;8.07;62.88;100732.78;4897438;28;97041;-83
2023/01/04 10:37:56;;;;;;;6.80;3.03;;;;;;;8.06;63.05;100717.97;4911638;28;98173;-84
2023/01/04 10:40:22;;;;;;;6.63;2.78;;;;;;;8.02;63.39;100715.44;4928620;28;98044;-87
2023/01/04 10:43:06;;;;;;;6.07;2.90;;;;;;;8.01;63.72;100711.97;4956497;28;97180;-86
2023/01/04 10:45:42;;;;;;;5.00;2.63;;;;;;;7.92;63.36;100685.97;4926536;28;97663;-83
2023/01/04 10:48:13;;;;;;;8.48;2.60;;;;;;;7.91;63.54;100684.25;4905185;28;101510;-79
2023/01/04 10:50:59;;;;;;;4.68;2.45;;;;;;;7.93;62.76;100672.88;4929931;28;101951;-77
2023/01/04 10:53:37;;;;;;;4.43;2.10;;;;;;;8.09;62.07;100688.31;4916955;28;96820;-84
2023/01/04 10:56:12;;;;;;;6.18;2.05;;;;;;;8.17;61.51;100683.78;4921248;28;96816;-78
2023/01/04 10:59:10;;;;;;;6.72;2.10;;;;;;;8.07;61.46;100661.31;4924459;28;100989;-85
2023/01/04 11:01:49;;;;;;;7.47;2.20;;;;;;;8.31;63.59;100673.06;4910192;28;101685;-79
2023/01/04 11:04:27;;;;;;;4.13;2.13;;;;;;;8.23;60.75;100674.94;4921398;28;97015;-83
2023/01/04 11:07:05;;;;;;;4.30;2.30;;;;;;;8.04;60.51;100643.94;4927328;28;97697;-84
2023/01/04 11:10:18;;;;;;;6.35;2.03;;;;;;;8.13;60.68;100663.81;4937257;28;101240;-83
2023/01/04 11:12:44;;;;;;;6.55;2.10;;;;;;;8.05;61.00;100647.41;4907073;28;100122;-83
2023/01/04 11:15:10;;;;;;;5.65;2.22;;;;;;;8.13;61.47;100650.75;4930613;28;97393;-86
2023/01/04 11:17:36;;;;;;;8.10;3.65;;;;;;;8.08;61.42;100644.72;4905244;28;98383;-87
2023/01/04 11:20:02;;;;;;;4.93;2.38;;;;;;;8.10;61.68;100637.72;4938030;28;97595;-84
2023/01/04 11:22:52;;;;;;;8.13;2.90;;;;;;;8.06;62.27;100628.22;4923007;28;101410;-82
2023/01/04 11:25:19;;;;;;;10.77;2.67;;;;;;;8.04;62.37;100628.25;4926381;28;97346;-86
2023/01/04 11:28:07;;;;;;;17.15;7.07;;;;;;;8.09;61.37;100628.16;4915470;28;96886;-83
2023/01/04 11:30:48;;;;;;;7.07;3.13;;;;;;;8.16;60.43;100622.78;4937852;28;97904;-82
2023/01/04 11:33:19;;;;;;;16.15;5.57;;;;;;;8.23;60.87;100602.63;4929837;28;101250;-82
2023/01/04 11:35:47;;;;;;;27.75;11.82;;;;;;;8.21;60.85;100599.16;4948704;28;97524;-82
2023/01/04 11:38:22;;;;;;;7.88;3.75;;;;;;;8.14;60.71;100572.28;4926831;28;97170;-83
2023/01/04 11:40:59;;;;;;;32.50;13.88;;;;;;;8.22;60.91;100566.00;4964760;28;97489;-82
2023/01/04 11:43:26;;;;;;;16.60;7.10;;;;;;;8.20;61.34;100571.25;4931187;28;101398;-84
2023/01/04 11:45:58;;;;;;;14.95;6.68;;;;;;;8.20;60.96;100562.56;4912791;28;97978;-83
2023/01/04 11:48:37;;;;;;;21.70;8.88;;;;;;;8.13;61.41;100560.06;4928088;28;97115;-83
2023/01/04 11:51:04;;;;;;;8.77;3.63;;;;;;;8.11;60.68;100554.00;4926575;28;101317;-82
2023/01/04 11:53:35;;;;;;;3.80;2.28;;;;;;;8.11;60.68;100554.00;4948573;28;97301;-83
2023/01/04 11:56:14;;;;;;;4.45;1.80;;;;;;;8.20;60.17;100552.94;4935453;28;97152;-82
2023/01/04 11:58:41;;;;;;;3.95;1.90;;;;;;;8.24;60.47;100533.72;4929246;28;97183;-82
2023/01/04 12:01:21;;;;;;;3.75;2.20;;;;;;;8.07;59.34;100489.59;4930662;28;101729;-83
2023/01/04 12:03:47;;;;;;;2.35;1.55;;;;;;;8.37;58.54;100524.69;4928953;28;101647;-83
2023/01/04 12:06:19;;;;;;;2.70;1.63;;;;;;;8.37;59.12;100523.84;4913730;28;97201;-83
2023/01/04 12:08:44;;;;;;;5.35;2.75;;;;;;;8.29;59.69;100503.09;4928509;28;97437;-82
2023/01/04 12:11:18;;;;;;;4.05;2.10;;;;;;;8.30;59.76;100503.94;4929767;28;97775;-83
2023/01/04 12:13:44;;;;;;;2.95;1.58;;;;;;;8.28;60.51;100496.13;4911324;28;101361;-83
2023/01/04 12:16:10;;;;;;;3.05;2.03;;;;;;;8.30;59.96;100494.34;4930333;28;97080;-83
2023/01/04 12:18:41;;;;;;;2.38;1.75;;;;;;;8.26;59.68;100469.16;4927567;28;96951;-86
2023/01/04 12:21:15;;;;;;;4.80;1.67;;;;;;;8.31;58.51;100459.44;4928134;28;101613;-84
2023/01/04 12:23:41;;;;;;;3.85;2.40;;;;;;;8.26;59.30;100463.94;4928028;28;101815;-82
2023/01/04 12:26:09;;;;;;;3.53;2.33;;;;;;;8.27;59.11;100455.19;4940886;28;97513;-83
2023/01/04 12:28:39;;;;;;;6.57;2.85;;;;;;;8.33;58.93;100451.56;4928856;28;97180;-83